createdAt,value
2018-07-04T00:00:57.987Z,1005.54
2018-07-04T00:01:58.538Z,1005.59
2018-07-04T00:03:05.682Z,1005.53
2018-07-04T00:04:06.176Z,1005.54
2018-07-04T00:05:12.144Z,1005.54
2018-07-04T00:06:16.655Z,1005.53
2018-07-04T00:07:23.527Z,1005.51
2018-07-04T00:08:24.350Z,1005.51
2018-07-04T00:09:34.402Z,1005.55
2018-07-04T00:11:46.489Z,1005.53
2018-07-04T00:13:53.977Z,1005.55
2018-07-04T00:14:59.206Z,1005.54
2018-07-04T00:16:03.003Z,1005.54
2018-07-04T00:17:08.129Z,1005.53
2018-07-04T00:18:18.478Z,1005.51
2018-07-04T00:19:22.544Z,1005.52
2018-07-04T00:20:24.330Z,1005.51
2018-07-04T00:21:28.942Z,1005.50
2018-07-04T00:22:42.162Z,1005.52
2018-07-04T00:25:55.545Z,1005.51
2018-07-04T00:27:00.010Z,1005.58
2018-07-04T00:28:04.619Z,1005.54
2018-07-04T00:29:19.237Z,1005.54
2018-07-04T00:30:13.344Z,1005.56
2018-07-04T00:31:30.035Z,1005.55
2018-07-04T00:32:26.667Z,1005.51
2018-07-04T00:33:32.711Z,1005.54
2018-07-04T00:34:32.410Z,1005.51
2018-07-04T00:35:43.787Z,1005.51
2018-07-04T00:36:47.170Z,1005.54
2018-07-04T00:39:04.798Z,1005.53
2018-07-04T00:40:00.708Z,1005.53
2018-07-04T00:41:08.292Z,1005.51
2018-07-04T00:42:15.466Z,1005.46
2018-07-04T00:43:19.159Z,1005.45
2018-07-04T00:45:28.495Z,1005.42
2018-07-04T00:46:35.927Z,1005.38
2018-07-04T00:47:43.970Z,1005.42
2018-07-04T00:48:53.506Z,1005.39
2018-07-04T00:49:48.556Z,1005.36
2018-07-04T00:51:01.294Z,1005.41
2018-07-04T00:52:05.806Z,1005.37
2018-07-04T00:53:12.783Z,1005.37
2018-07-04T00:54:09.315Z,1005.32
2018-07-04T00:55:31.018Z,1005.31
2018-07-04T00:56:27.952Z,1005.30
2018-07-04T00:57:33.598Z,1005.31
2018-07-04T00:58:40.357Z,1005.33
2018-07-04T00:59:51.934Z,1005.33
2018-07-04T01:00:50.927Z,1005.32
2018-07-04T01:01:58.194Z,1005.32
2018-07-04T01:02:59.226Z,1005.27
2018-07-04T01:04:06.094Z,1005.25
2018-07-04T01:05:16.104Z,1005.22
2018-07-04T01:06:18.395Z,1005.19
2018-07-04T01:08:35.099Z,1005.21
2018-07-04T01:09:39.559Z,1005.17
2018-07-04T01:10:41.158Z,1005.22
2018-07-04T01:11:48.560Z,1005.21
2018-07-04T01:12:49.668Z,1005.22
2018-07-04T01:13:59.607Z,1005.22
2018-07-04T01:15:03.561Z,1005.21
2018-07-04T01:16:06.585Z,1005.19
2018-07-04T01:17:12.633Z,1005.18
2018-07-04T01:18:27.692Z,1005.19
2018-07-04T01:19:31.561Z,1005.18
2018-07-04T01:20:35.589Z,1005.13
2018-07-04T01:22:40.826Z,1005.15
2018-07-04T01:23:50.459Z,1005.16
2018-07-04T01:24:53.234Z,1005.13
2018-07-04T01:26:05.219Z,1005.12
2018-07-04T01:28:13.116Z,1005.13
2018-07-04T01:29:22.340Z,1005.13
2018-07-04T01:30:25.111Z,1005.16
2018-07-04T01:31:23.888Z,1005.13
2018-07-04T01:33:38.340Z,1005.13
2018-07-04T01:34:41.215Z,1005.13
2018-07-04T01:35:43.373Z,1005.16
2018-07-04T01:36:50.567Z,1005.13
2018-07-04T01:38:06.329Z,1005.15
2018-07-04T01:39:05.204Z,1005.11
2018-07-04T01:40:10.126Z,1005.14
2018-07-04T01:41:19.661Z,1005.16
2018-07-04T01:44:37.701Z,1005.16
2018-07-04T01:45:39.960Z,1005.12
2018-07-04T01:46:41.809Z,1005.17
2018-07-04T01:47:47.857Z,1005.19
2018-07-04T01:48:54.827Z,1005.23
2018-07-04T01:49:57.804Z,1005.24
2018-07-04T01:51:11.838Z,1005.25
2018-07-04T01:52:12.051Z,1005.19
2018-07-04T01:53:14.207Z,1005.17
2018-07-04T01:54:15.035Z,1005.11
2018-07-04T01:55:22.926Z,1005.15
2018-07-04T01:56:36.756Z,1005.18
2018-07-04T01:57:40.245Z,1005.20
2018-07-04T01:58:46.293Z,1005.20
2018-07-04T01:59:42.614Z,1005.20
2018-07-04T02:00:52.711Z,1005.19
2018-07-04T02:02:01.059Z,1005.19
2018-07-04T02:03:04.957Z,1005.13
2018-07-04T02:04:10.391Z,1005.07
2018-07-04T02:05:14.576Z,1005.02
2018-07-04T02:06:19.825Z,1005.03
2018-07-04T02:07:28.434Z,1005.02
2018-07-04T02:08:32.231Z,1005.01
2018-07-04T02:09:34.489Z,1004.97
2018-07-04T02:10:37.576Z,1004.96
2018-07-04T02:11:46.186Z,1004.95
2018-07-04T02:13:54.719Z,1004.93
2018-07-04T02:16:14.578Z,1004.95
2018-07-04T02:17:13.858Z,1004.92
2018-07-04T02:18:19.191Z,1004.89
2018-07-04T02:19:27.901Z,1004.87
2018-07-04T02:20:40.606Z,1004.84
2018-07-04T02:21:36.210Z,1004.85
2018-07-04T02:22:43.078Z,1004.85
2018-07-04T02:23:43.581Z,1004.84
2018-07-04T02:24:51.924Z,1004.83
2018-07-04T02:26:03.182Z,1004.74
2018-07-04T02:27:10.550Z,1004.80
2018-07-04T02:28:12.909Z,1004.79
2018-07-04T02:30:29.207Z,1004.78
2018-07-04T02:31:36.280Z,1004.74
2018-07-04T02:33:42.434Z,1004.82
2018-07-04T02:34:46.027Z,1004.86
2018-07-04T02:35:51.360Z,1004.83
2018-07-04T02:36:50.552Z,1004.82
2018-07-04T02:37:58.538Z,1004.84
2018-07-04T02:39:09.605Z,1004.82
2018-07-04T02:40:07.052Z,1004.80
2018-07-04T02:41:19.043Z,1004.80
2018-07-04T02:43:31.653Z,1004.79
2018-07-04T02:44:36.674Z,1004.76
2018-07-04T02:46:47.847Z,1004.73
2018-07-04T02:47:43.144Z,1004.74
2018-07-04T02:49:05.589Z,1004.73
2018-07-04T02:50:00.371Z,1004.69
2018-07-04T02:51:07.434Z,1004.67
2018-07-04T02:52:12.237Z,1004.63
2018-07-04T02:53:28.748Z,1004.58
2018-07-04T02:54:21.892Z,1004.55
2018-07-04T02:55:26.201Z,1004.56
2018-07-04T02:56:35.013Z,1004.53
2018-07-04T02:58:46.701Z,1004.48
2018-07-04T02:59:48.758Z,1004.45
2018-07-04T03:00:57.162Z,1004.42
2018-07-04T03:02:00.751Z,1004.44
2018-07-04T03:03:02.704Z,1004.45
2018-07-04T03:04:25.339Z,1004.42
2018-07-04T03:05:17.359Z,1004.46
2018-07-04T03:06:22.690Z,1004.46
2018-07-04T03:07:25.360Z,1004.50
2018-07-04T03:08:41.145Z,1004.52
2018-07-04T03:09:42.167Z,1004.55
2018-07-04T03:10:40.638Z,1004.53
2018-07-04T03:12:55.295Z,1004.44
2018-07-04T03:14:00.431Z,1004.38
2018-07-04T03:15:19.252Z,1004.43
2018-07-04T03:16:13.599Z,1004.50
2018-07-04T03:17:21.845Z,1004.53
2018-07-04T03:19:33.224Z,1004.54
2018-07-04T03:20:38.659Z,1004.46
2018-07-04T03:21:42.598Z,1004.44
2018-07-04T03:22:49.731Z,1004.44
2018-07-04T03:24:03.768Z,1004.46
2018-07-04T03:25:05.107Z,1004.51
2018-07-04T03:26:07.365Z,1004.51
2018-07-04T03:27:07.891Z,1004.53
2018-07-04T03:28:27.450Z,1004.54
2018-07-04T03:29:22.541Z,1004.52
2018-07-04T03:30:30.534Z,1004.56
2018-07-04T03:31:38.638Z,1004.54
2018-07-04T03:32:36.795Z,1004.56
2018-07-04T03:33:40.078Z,1004.57
2018-07-04T03:34:45.821Z,1004.55
2018-07-04T03:35:53.200Z,1004.54
2018-07-04T03:36:58.053Z,1004.54
2018-07-04T03:38:06.218Z,1004.56
2018-07-04T03:39:06.225Z,1004.54
2018-07-04T03:40:28.351Z,1004.54
2018-07-04T03:42:28.364Z,1004.50
2018-07-04T03:43:27.264Z,1004.48
2018-07-04T03:44:35.239Z,1004.50
2018-07-04T03:47:51.233Z,1004.49
2018-07-04T03:48:58.759Z,1004.51
2018-07-04T03:50:02.621Z,1004.54
2018-07-04T03:51:23.610Z,1004.53
2018-07-04T03:52:15.938Z,1004.52
2018-07-04T03:53:24.342Z,1004.54
2018-07-04T03:54:28.453Z,1004.55
2018-07-04T03:55:33.613Z,1004.57
2018-07-04T03:56:34.708Z,1004.55
2018-07-04T03:57:43.619Z,1004.55
2018-07-04T03:58:56.533Z,1004.55
2018-07-04T03:59:57.050Z,1004.54
2018-07-04T04:01:10.675Z,1004.56
2018-07-04T04:02:01.620Z,1004.58
2018-07-04T04:03:13.865Z,1004.55
2018-07-04T04:04:11.208Z,1004.57
2018-07-04T04:07:35.906Z,1004.50
2018-07-04T04:08:41.750Z,1004.47
2018-07-04T04:09:42.990Z,1004.50
2018-07-04T04:11:57.617Z,1004.48
2018-07-04T04:13:01.030Z,1004.45
2018-07-04T04:14:09.246Z,1004.47
2018-07-04T04:15:18.245Z,1004.45
2018-07-04T04:16:15.389Z,1004.44
2018-07-04T04:18:25.618Z,1004.41
2018-07-04T04:19:27.386Z,1004.43
2018-07-04T04:20:43.368Z,1004.46
2018-07-04T04:21:43.783Z,1004.46
2018-07-04T04:22:54.952Z,1004.43
2018-07-04T04:23:55.061Z,1004.41
2018-07-04T04:24:58.345Z,1004.43
2018-07-04T04:26:08.592Z,1004.51
2018-07-04T04:27:16.625Z,1004.47
2018-07-04T04:28:25.604Z,1004.49
2018-07-04T04:29:27.663Z,1004.48
2018-07-04T04:30:33.419Z,1004.51
2018-07-04T04:32:39.762Z,1004.56
2018-07-04T04:33:49.350Z,1004.52
2018-07-04T04:34:44.386Z,1004.52
2018-07-04T04:35:58.224Z,1004.53
2018-07-04T04:37:01.733Z,1004.50
2018-07-04T04:38:04.372Z,1004.55
2018-07-04T04:39:12.983Z,1004.52
2018-07-04T04:41:32.553Z,1004.46
2018-07-04T04:42:40.549Z,1004.51
2018-07-04T04:43:29.801Z,1004.50
2018-07-04T04:44:47.524Z,1004.50
2018-07-04T04:45:45.995Z,1004.48
2018-07-04T04:46:53.886Z,1004.43
2018-07-04T04:47:51.230Z,1004.47
2018-07-04T04:49:11.209Z,1004.43
2018-07-04T04:50:18.075Z,1004.41
2018-07-04T04:51:18.182Z,1004.41
2018-07-04T04:52:21.262Z,1004.48
2018-07-04T04:54:34.791Z,1004.46
2018-07-04T04:55:33.303Z,1004.46
2018-07-04T04:56:38.630Z,1004.44
2018-07-04T04:57:47.428Z,1004.45
2018-07-04T04:58:49.563Z,1004.48
2018-07-04T04:59:56.227Z,1004.45
2018-07-04T05:01:06.630Z,1004.46
2018-07-04T05:02:15.288Z,1004.43
2018-07-04T05:03:20.243Z,1004.45
2018-07-04T05:04:20.113Z,1004.43
2018-07-04T05:05:26.572Z,1004.44
2018-07-04T05:06:27.704Z,1004.44
2018-07-04T05:07:35.702Z,1004.42
2018-07-04T05:08:41.133Z,1004.40
2018-07-04T05:09:48.719Z,1004.38
2018-07-04T05:10:56.634Z,1004.46
2018-07-04T05:12:02.865Z,1004.44
2018-07-04T05:13:01.334Z,1004.44
2018-07-04T05:14:15.881Z,1004.41
2018-07-04T05:15:16.604Z,1004.40
2018-07-04T05:16:21.526Z,1004.44
2018-07-04T05:17:34.223Z,1004.44
2018-07-04T05:18:36.685Z,1004.45
2018-07-04T05:20:48.424Z,1004.46
2018-07-04T05:21:52.700Z,1004.50
2018-07-04T05:22:52.201Z,1004.50
2018-07-04T05:24:00.639Z,1004.51
2018-07-04T05:25:04.638Z,1004.53
2018-07-04T05:26:05.825Z,1004.50
2018-07-04T05:27:15.639Z,1004.50
2018-07-04T05:28:18.073Z,1004.55
2018-07-04T05:30:27.868Z,1004.52
2018-07-04T05:31:46.923Z,1004.57
2018-07-04T05:32:47.134Z,1004.55
2018-07-04T05:33:49.393Z,1004.56
2018-07-04T05:34:59.025Z,1004.58
2018-07-04T05:36:01.826Z,1004.56
2018-07-04T05:37:03.544Z,1004.57
2018-07-04T05:38:06.623Z,1004.51
2018-07-04T05:39:20.770Z,1004.55
2018-07-04T05:40:24.865Z,1004.53
2018-07-04T05:41:40.643Z,1004.51
2018-07-04T05:42:34.503Z,1004.52
2018-07-04T05:43:41.707Z,1004.54
2018-07-04T05:44:49.263Z,1004.57
2018-07-04T05:45:46.816Z,1004.56
2018-07-04T05:46:58.901Z,1004.55
2018-07-04T05:48:17.553Z,1004.56
2018-07-04T05:49:12.842Z,1004.55
2018-07-04T05:50:12.236Z,1004.57
2018-07-04T05:51:24.739Z,1004.54
2018-07-04T05:53:28.332Z,1004.52
2018-07-04T05:54:37.350Z,1004.52
2018-07-04T05:55:43.500Z,1004.48
2018-07-04T05:56:44.634Z,1004.49
2018-07-04T05:59:01.033Z,1004.46
2018-07-04T06:00:06.979Z,1004.45
2018-07-04T06:01:04.842Z,1004.42
2018-07-04T06:02:32.389Z,1004.43
2018-07-04T06:03:17.445Z,1004.47
2018-07-04T06:04:19.089Z,1004.49
2018-07-04T06:05:35.692Z,1004.46
2018-07-04T06:06:39.480Z,1004.47
2018-07-04T06:08:49.836Z,1004.45
2018-07-04T06:09:58.444Z,1004.43
2018-07-04T06:10:58.254Z,1004.44
2018-07-04T06:12:08.909Z,1004.38
2018-07-04T06:13:15.771Z,1004.43
2018-07-04T06:14:14.762Z,1004.41
2018-07-04T06:15:27.971Z,1004.40
2018-07-04T06:17:39.579Z,1004.41
2018-07-04T06:18:33.729Z,1004.42
2018-07-04T06:19:40.086Z,1004.38
2018-07-04T06:20:46.742Z,1004.40
2018-07-04T06:21:57.098Z,1004.40
2018-07-04T06:23:58.026Z,1004.36
2018-07-04T06:25:14.934Z,1004.37
2018-07-04T06:26:14.835Z,1004.40
2018-07-04T06:27:27.949Z,1004.39
2018-07-04T06:28:32.053Z,1004.36
2018-07-04T06:29:28.373Z,1004.41
2018-07-04T06:30:48.040Z,1004.40
2018-07-04T06:32:02.486Z,1004.37
2018-07-04T06:32:58.604Z,1004.35
2018-07-04T06:34:06.302Z,1004.35
2018-07-04T06:37:18.186Z,1004.37
2018-07-04T06:38:27.512Z,1004.34
2018-07-04T06:39:25.986Z,1004.36
2018-07-04T06:40:33.977Z,1004.35
2018-07-04T06:41:42.176Z,1004.44
2018-07-04T06:42:34.296Z,1004.53
2018-07-04T06:45:00.040Z,1004.58
2018-07-04T06:47:08.937Z,1004.59
2018-07-04T06:48:03.003Z,1004.56
2018-07-04T06:49:21.033Z,1004.56
2018-07-04T06:50:20.118Z,1004.56
2018-07-04T06:53:36.112Z,1004.54
2018-07-04T06:54:50.057Z,1004.47
2018-07-04T06:55:41.451Z,1004.42
2018-07-04T06:56:58.558Z,1004.43
2018-07-04T06:58:00.512Z,1004.44
2018-07-04T06:59:09.126Z,1004.46
2018-07-04T07:00:12.198Z,1004.47
2018-07-04T07:01:12.718Z,1004.47
2018-07-04T07:05:43.261Z,1004.51
2018-07-04T07:07:39.800Z,1004.51
2018-07-04T07:08:57.207Z,1004.55
2018-07-04T07:09:59.160Z,1004.51
2018-07-04T07:11:09.304Z,1004.52
2018-07-04T07:13:24.371Z,1004.49
2018-07-04T07:14:11.781Z,1004.43
2018-07-04T07:15:30.222Z,1004.48
2018-07-04T07:16:48.763Z,1004.45
2018-07-04T07:18:40.686Z,1004.42
2018-07-04T07:19:53.186Z,1004.43
2018-07-04T07:21:07.972Z,1004.46
2018-07-04T07:22:21.874Z,1004.44
2018-07-04T07:23:09.282Z,1004.45
2018-07-04T07:24:13.899Z,1004.42
2018-07-04T07:25:23.941Z,1004.39
2018-07-04T07:26:31.011Z,1004.38
2018-07-04T07:27:40.249Z,1004.40
2018-07-04T07:29:53.971Z,1004.40
2018-07-04T07:31:11.794Z,1004.39
2018-07-04T07:32:25.728Z,1004.38
2018-07-04T07:33:00.753Z,1004.39
2018-07-04T07:34:22.663Z,1004.39
2018-07-04T07:35:22.678Z,1004.40
2018-07-04T07:36:02.006Z,1004.36
2018-07-04T07:37:44.091Z,1004.37
2018-07-04T07:39:32.534Z,1004.35
2018-07-04T07:40:44.624Z,1004.33
2018-07-04T07:42:35.832Z,1004.35
2018-07-04T07:43:56.317Z,1004.31
2018-07-04T07:45:30.835Z,1004.38
2018-07-04T07:46:11.183Z,1004.34
2018-07-04T07:48:26.143Z,1004.29
2018-07-04T07:49:21.031Z,1004.30
2018-07-04T07:50:24.110Z,1004.29
2018-07-04T07:51:35.074Z,1004.26
2018-07-04T07:52:48.290Z,1004.27
2018-07-04T07:53:58.744Z,1004.30
2018-07-04T07:54:39.804Z,1004.29
2018-07-04T07:57:06.443Z,1004.23
2018-07-04T07:58:13.513Z,1004.24
2018-07-04T07:59:09.640Z,1004.17
2018-07-04T08:00:27.760Z,1004.18
2018-07-04T08:02:22.756Z,1004.16
2018-07-04T08:03:29.931Z,1004.16
2018-07-04T08:04:26.355Z,1004.16
2018-07-04T08:05:42.030Z,1004.12
2018-07-04T08:06:42.757Z,1004.18
2018-07-04T08:07:41.749Z,1004.13
2018-07-04T08:08:53.108Z,1004.11
2018-07-04T08:09:48.611Z,1004.12
2018-07-04T08:11:02.238Z,1004.14
2018-07-04T08:12:00.296Z,1004.12
2018-07-04T08:13:17.407Z,1004.10
2018-07-04T08:14:13.419Z,1004.12
2018-07-04T08:15:21.723Z,1004.10
2018-07-04T08:16:33.710Z,1004.12
2018-07-04T08:17:34.532Z,1004.09
2018-07-04T08:18:36.996Z,1004.13
2018-07-04T08:20:46.943Z,1004.10
2018-07-04T08:21:48.998Z,1004.12
2018-07-04T08:22:56.072Z,1004.11
2018-07-04T08:24:08.366Z,1004.06
2018-07-04T08:26:17.227Z,1004.08
2018-07-04T08:27:34.606Z,1004.09
2018-07-04T08:28:43.517Z,1004.09
2018-07-04T08:29:37.685Z,1004.08
2018-07-04T08:30:30.627Z,1004.08
2018-07-04T08:32:55.831Z,1004.11
2018-07-04T08:34:00.855Z,1004.08
2018-07-04T08:34:59.737Z,1004.09
2018-07-04T08:37:09.171Z,1004.07
2018-07-04T08:38:11.225Z,1004.08
2018-07-04T08:39:35.398Z,1004.08
2018-07-04T08:40:32.742Z,1004.08
2018-07-04T08:41:49.748Z,1004.07
2018-07-04T08:43:49.532Z,1004.06
2018-07-04T08:45:01.958Z,1004.03
2018-07-04T08:46:02.576Z,1004.01
2018-07-04T08:48:10.270Z,1004.03
2018-07-04T08:49:16.113Z,1004.06
2018-07-04T08:51:23.192Z,1004.01
2018-07-04T08:52:38.469Z,1004.04
2018-07-04T08:53:34.573Z,1004.04
2018-07-04T08:56:51.697Z,1004.04
2018-07-04T08:58:03.478Z,1004.03
2018-07-04T08:59:09.934Z,1004.04
2018-07-04T09:01:12.004Z,1004.04
2018-07-04T09:02:16.305Z,1004.08
2018-07-04T09:03:27.784Z,1004.03
2018-07-04T09:04:21.958Z,1004.06
2018-07-04T09:05:43.564Z,1004.07
2018-07-04T09:06:38.246Z,1004.08
2018-07-04T09:07:47.163Z,1004.10
2018-07-04T09:08:45.221Z,1004.06
2018-07-04T09:10:05.914Z,1004.08
2018-07-04T09:10:51.481Z,1004.10
2018-07-04T09:12:03.880Z,1004.10
2018-07-04T09:13:05.116Z,1004.10
2018-07-04T09:14:21.813Z,1004.06
2018-07-04T09:17:30.434Z,1004.05
2018-07-04T09:18:39.146Z,1004.08
2018-07-04T09:19:57.486Z,1004.07
2018-07-04T09:21:45.313Z,1004.04
2018-07-04T09:23:18.494Z,1004.03
2018-07-04T09:24:16.353Z,1004.04
2018-07-04T09:25:22.194Z,1004.03
2018-07-04T09:26:35.922Z,1004.04
2018-07-04T09:27:36.863Z,1004.04
2018-07-04T09:28:40.544Z,1004.07
2018-07-04T09:29:51.201Z,1004.06
2018-07-04T09:31:02.269Z,1004.03
2018-07-04T09:32:08.010Z,1004.00
2018-07-04T09:32:54.604Z,1004.04
2018-07-04T09:34:11.512Z,1004.01
2018-07-04T09:35:17.961Z,1004.02
2018-07-04T09:36:21.041Z,1003.99
2018-07-04T09:37:24.736Z,1004.01
2018-07-04T09:38:28.372Z,1003.99
2018-07-04T09:39:31.607Z,1003.98
2018-07-04T09:40:40.728Z,1003.97
2018-07-04T09:41:40.632Z,1003.97
2018-07-04T09:42:56.103Z,1003.94
2018-07-04T09:43:57.159Z,1003.98
2018-07-04T09:45:07.381Z,1003.94
2018-07-04T09:46:04.930Z,1003.96
2018-07-04T09:50:30.454Z,1003.98
2018-07-04T09:51:50.722Z,1003.93
2018-07-04T09:52:43.065Z,1003.94
2018-07-04T09:53:49.725Z,1003.96
2018-07-04T09:54:46.763Z,1003.93
2018-07-04T09:57:03.672Z,1003.97
2018-07-04T09:58:13.510Z,1003.92
2018-07-04T09:59:17.103Z,1003.90
2018-07-04T10:00:20.384Z,1003.92
2018-07-04T10:01:23.260Z,1003.93
2018-07-04T10:02:36.267Z,1003.91
2018-07-04T10:03:41.808Z,1003.92
2018-07-04T10:09:12.729Z,1003.90
2018-07-04T10:11:13.188Z,1003.91
2018-07-04T10:13:28.736Z,1003.87
2018-07-04T10:14:36.147Z,1003.86
2018-07-04T10:15:40.147Z,1003.85
2018-07-04T10:16:46.809Z,1003.83
2018-07-04T10:17:50.402Z,1003.85
2018-07-04T10:19:57.731Z,1003.81
2018-07-04T10:21:07.934Z,1003.81
2018-07-04T10:22:11.941Z,1003.86
2018-07-04T10:23:16.137Z,1003.82
2018-07-04T10:24:22.392Z,1003.80
2018-07-04T10:25:28.755Z,1003.78
2018-07-04T10:26:32.655Z,1003.78
2018-07-04T10:27:40.536Z,1003.79
2018-07-04T10:28:43.820Z,1003.75
2018-07-04T10:29:53.487Z,1003.73
2018-07-04T10:30:59.813Z,1003.75
2018-07-04T10:33:04.232Z,1003.78
2018-07-04T10:34:11.809Z,1003.75
2018-07-04T10:35:20.418Z,1003.73
2018-07-04T10:37:33.641Z,1003.70
2018-07-04T10:38:34.876Z,1003.75
2018-07-04T10:39:37.955Z,1003.76
2018-07-04T10:40:46.156Z,1003.77
2018-07-04T10:41:45.239Z,1003.75
2018-07-04T10:42:53.438Z,1003.75
2018-07-04T10:44:01.738Z,1003.77
2018-07-04T10:45:15.574Z,1003.73
2018-07-04T10:46:19.776Z,1003.73
2018-07-04T10:47:25.825Z,1003.73
2018-07-04T10:49:28.398Z,1003.72
2018-07-04T10:50:41.744Z,1003.71
2018-07-04T10:52:55.657Z,1003.74
2018-07-04T10:53:48.014Z,1003.68
2018-07-04T10:54:59.468Z,1003.73
2018-07-04T10:56:03.995Z,1003.73
2018-07-04T10:57:14.323Z,1003.76
2018-07-04T10:59:26.315Z,1003.80
2018-07-04T11:00:22.541Z,1003.77
2018-07-04T11:01:32.779Z,1003.74
2018-07-04T11:02:38.729Z,1003.74
2018-07-04T11:04:51.949Z,1003.82
2018-07-04T11:05:55.012Z,1003.85
2018-07-04T11:06:59.438Z,1003.76
2018-07-04T11:08:27.402Z,1003.79
2018-07-04T11:09:05.186Z,1003.76
2018-07-04T11:10:15.641Z,1003.73
2018-07-04T11:11:22.636Z,1003.75
2018-07-04T11:13:32.776Z,1003.73
2018-07-04T11:14:37.173Z,1003.75
2018-07-04T11:15:44.243Z,1003.73
2018-07-04T11:16:45.334Z,1003.75
2018-07-04T11:17:55.112Z,1003.73
2018-07-04T11:18:58.756Z,1003.74
2018-07-04T11:21:10.899Z,1003.72
2018-07-04T11:22:27.497Z,1003.69
2018-07-04T11:23:28.014Z,1003.71
2018-07-04T11:25:35.708Z,1003.71
2018-07-04T11:26:45.588Z,1003.68
2018-07-04T11:27:48.532Z,1003.67
2018-07-04T11:29:49.048Z,1003.66
2018-07-04T11:33:12.520Z,1003.69
2018-07-04T11:34:15.903Z,1003.68
2018-07-04T11:35:27.491Z,1003.69
2018-07-04T11:36:30.711Z,1003.72
2018-07-04T11:37:38.452Z,1003.70
2018-07-04T11:38:42.624Z,1003.65
2018-07-04T11:39:41.026Z,1003.68
2018-07-04T11:40:59.671Z,1003.60
2018-07-04T11:41:52.713Z,1003.66
2018-07-04T11:42:56.202Z,1003.62
2018-07-04T11:44:08.907Z,1003.58
2018-07-04T11:45:10.857Z,1003.59
2018-07-04T11:46:13.126Z,1003.58
2018-07-04T11:47:46.203Z,1003.55
2018-07-04T11:48:33.305Z,1003.61
2018-07-04T11:49:32.270Z,1003.58
2018-07-04T11:50:41.715Z,1003.60
2018-07-04T11:51:53.499Z,1003.57
2018-07-04T11:52:53.811Z,1003.63
2018-07-04T11:54:00.782Z,1003.61
2018-07-04T11:56:06.837Z,1003.61
2018-07-04T11:57:09.319Z,1003.63
2018-07-04T11:58:36.454Z,1003.61
2018-07-04T11:59:22.832Z,1003.59
2018-07-04T12:00:30.212Z,1003.60
2018-07-04T12:01:38.654Z,1003.53
2018-07-04T12:02:39.033Z,1003.57
2018-07-04T12:03:44.568Z,1003.55
2018-07-04T12:04:54.302Z,1003.53
2018-07-04T12:06:02.921Z,1003.55
2018-07-04T12:07:14.489Z,1003.54
2018-07-04T12:08:12.149Z,1003.45
2018-07-04T12:09:16.545Z,1003.49
2018-07-04T12:10:24.853Z,1003.51
2018-07-04T12:11:31.770Z,1003.50
2018-07-04T12:12:38.691Z,1003.52
2018-07-04T12:13:35.632Z,1003.50
2018-07-04T12:15:58.175Z,1003.51
2018-07-04T12:16:51.723Z,1003.49
2018-07-04T12:17:51.937Z,1003.53
2018-07-04T12:19:04.009Z,1003.49
2018-07-04T12:21:14.283Z,1003.58
2018-07-04T12:22:20.491Z,1003.53
2018-07-04T12:24:27.406Z,1003.61
2018-07-04T12:25:34.997Z,1003.59
2018-07-04T12:26:44.879Z,1003.63
2018-07-04T12:27:47.803Z,1003.66
2018-07-04T12:28:57.542Z,1003.66
2018-07-04T12:29:58.466Z,1003.69
2018-07-04T12:31:13.220Z,1003.72
2018-07-04T12:32:10.365Z,1003.70
2018-07-04T12:33:21.436Z,1003.72
2018-07-04T12:34:21.534Z,1003.68
2018-07-04T12:35:28.197Z,1003.67
2018-07-04T12:36:31.486Z,1003.73
2018-07-04T12:37:41.014Z,1003.70
2018-07-04T12:39:06.776Z,1003.71
2018-07-04T12:39:43.658Z,1003.72
2018-07-04T12:40:53.013Z,1003.71
2018-07-04T12:42:05.618Z,1003.75
2018-07-04T12:43:06.927Z,1003.79
2018-07-04T12:45:22.331Z,1003.80
2018-07-04T12:46:18.237Z,1003.82
2018-07-04T12:47:26.240Z,1003.82
2018-07-04T12:48:27.892Z,1003.82
2018-07-04T12:49:36.895Z,1003.81
2018-07-04T12:50:45.707Z,1003.83
2018-07-04T12:51:51.550Z,1003.86
2018-07-04T12:53:14.187Z,1003.80
2018-07-04T12:53:55.518Z,1003.82
2018-07-04T12:55:07.658Z,1003.79
2018-07-04T12:56:09.511Z,1003.78
2018-07-04T12:57:16.993Z,1003.77
2018-07-04T12:58:30.913Z,1003.77
2018-07-04T12:59:31.893Z,1003.77
2018-07-04T13:00:35.126Z,1003.76
2018-07-04T13:01:43.334Z,1003.71
2018-07-04T13:02:44.787Z,1003.77
2018-07-04T13:04:56.569Z,1003.74
2018-07-04T13:06:03.322Z,1003.75
2018-07-04T13:07:06.296Z,1003.80
2018-07-04T13:08:19.006Z,1003.75
2018-07-04T13:09:24.844Z,1003.74
2018-07-04T13:10:36.629Z,1003.74
2018-07-04T13:11:33.458Z,1003.76
2018-07-04T13:12:42.187Z,1003.75
2018-07-04T13:13:40.745Z,1003.73
2018-07-04T13:14:41.879Z,1003.75
2018-07-04T13:15:51.794Z,1003.77
2018-07-04T13:16:56.738Z,1003.72
2018-07-04T13:18:01.355Z,1003.72
2018-07-04T13:19:19.167Z,1003.72
2018-07-04T13:20:21.132Z,1003.77
2018-07-04T13:21:18.272Z,1003.76
2018-07-04T13:23:25.248Z,1003.73
2018-07-04T13:24:42.559Z,1003.77
2018-07-04T13:26:38.797Z,1003.73
2018-07-04T13:27:53.544Z,1003.71
2018-07-04T13:30:11.603Z,1003.67
2018-07-04T13:31:14.857Z,1003.68
2018-07-04T13:32:10.637Z,1003.68
2018-07-04T13:33:29.792Z,1003.67
2018-07-04T13:34:15.795Z,1003.69
2018-07-04T13:35:31.071Z,1003.67
2018-07-04T13:36:35.800Z,1003.65
2018-07-04T13:37:43.678Z,1003.67
2018-07-04T13:38:48.287Z,1003.66
2018-07-04T13:39:57.715Z,1003.70
2018-07-04T13:40:54.249Z,1003.67
2018-07-04T13:41:57.527Z,1003.70
2018-07-04T13:43:05.848Z,1003.70
2018-07-04T13:44:08.520Z,1003.71
2018-07-04T13:45:30.108Z,1003.73
2018-07-04T13:47:31.965Z,1003.73
2018-07-04T13:49:40.695Z,1003.71
2018-07-04T13:50:48.798Z,1003.70
2018-07-04T13:51:48.682Z,1003.72
2018-07-04T13:53:00.978Z,1003.72
2018-07-04T13:54:06.317Z,1003.69
2018-07-04T13:55:08.978Z,1003.71
2018-07-04T13:56:12.160Z,1003.72
2018-07-04T13:57:21.594Z,1003.72
2018-07-04T13:58:35.120Z,1003.69
2018-07-04T13:59:35.732Z,1003.67
2018-07-04T14:01:43.017Z,1003.69
2018-07-04T14:02:44.173Z,1003.69
2018-07-04T14:03:52.062Z,1003.69
2018-07-04T14:05:02.390Z,1003.69
2018-07-04T14:06:08.259Z,1003.71
2018-07-04T14:07:06.704Z,1003.73
2018-07-04T14:08:17.668Z,1003.69
2018-07-04T14:10:26.902Z,1003.69
2018-07-04T14:11:37.762Z,1003.72
2018-07-04T14:13:45.248Z,1003.72
2018-07-04T14:14:52.322Z,1003.73
2018-07-04T14:15:55.811Z,1003.71
2018-07-04T14:16:56.812Z,1003.70
2018-07-04T14:17:57.057Z,1003.69
2018-07-04T14:19:14.774Z,1003.67
2018-07-04T14:20:19.402Z,1003.65
2018-07-04T14:22:31.084Z,1003.65
2018-07-04T14:23:35.809Z,1003.67
2018-07-04T14:24:38.257Z,1003.68
2018-07-04T14:25:45.025Z,1003.63
2018-07-04T14:26:54.660Z,1003.61
2018-07-04T14:27:58.975Z,1003.59
2018-07-04T14:30:08.091Z,1003.61
2018-07-04T14:31:17.216Z,1003.58
2018-07-04T14:33:29.206Z,1003.56
2018-07-04T14:34:32.591Z,1003.57
2018-07-04T14:36:48.486Z,1003.57
2018-07-04T14:37:43.977Z,1003.48
2018-07-04T14:38:53.953Z,1003.53
2018-07-04T14:41:02.742Z,1003.49
2018-07-04T14:42:17.594Z,1003.51
2018-07-04T14:43:12.888Z,1003.45
2018-07-04T14:44:08.801Z,1003.44
2018-07-04T14:45:26.931Z,1003.42
2018-07-04T14:46:29.907Z,1003.40
2018-07-04T14:47:37.800Z,1003.43
2018-07-04T14:48:35.767Z,1003.43
2018-07-04T14:49:47.339Z,1003.42
2018-07-04T14:50:54.818Z,1003.43
2018-07-04T14:51:56.156Z,1003.37
2018-07-04T14:53:10.398Z,1003.39
2018-07-04T14:54:14.296Z,1003.37
2018-07-04T14:55:15.633Z,1003.38
2018-07-04T14:56:13.182Z,1003.37
2018-07-04T14:57:27.533Z,1003.36
2018-07-04T14:59:43.316Z,1003.37
2018-07-04T15:00:45.984Z,1003.37
2018-07-04T15:01:47.009Z,1003.37
2018-07-04T15:02:48.142Z,1003.37
2018-07-04T15:03:58.492Z,1003.32
2018-07-04T15:04:56.347Z,1003.31
2018-07-04T15:06:02.601Z,1003.32
2018-07-04T15:07:19.504Z,1003.36
2018-07-04T15:09:24.822Z,1003.33
2018-07-04T15:10:34.689Z,1003.28
2018-07-04T15:11:45.234Z,1003.27
2018-07-04T15:12:38.175Z,1003.30
2018-07-04T15:13:55.385Z,1003.28
2018-07-04T15:15:00.616Z,1003.26
2018-07-04T15:18:03.502Z,1003.25